sensor_id;sensor_type;location;lat;lon;timestamp;P1;P2;P0
54305;PMS7003;66145;45.188;5.712;2023-12-20T00:01:16;5.00;5.00;5.00
54305;PMS7003;66145;45.188;5.712;2023-12-20T00:03:41;7.33;7.33;5.67
54305;PMS7003;66145;45.188;5.712;2023-12-20T00:06:07;10.67;9.00;7.00
54305;PMS7003;66145;45.188;5.712;2023-12-20T00:08:32;7.00;7.00;5.00
54305;PMS7003;66145;45.188;5.712;2023-12-20T00:10:57;6.00;6.00;5.00
54305;PMS7003;66145;45.188;5.712;2023-12-20T00:13:23;9.33;8.00;5.33
54305;PMS7003;66145;45.188;5.712;2023-12-20T00:15:48;12.00;9.00;6.00
54305;PMS7003;66145;45.188;5.712;2023-12-20T00:18:13;7.33;7.33;5.33
54305;PMS7003;66145;45.188;5.712;2023-12-20T00:20:39;11.00;8.00;7.00
54305;PMS7003;66145;45.188;5.712;2023-12-20T00:23:04;10.33;8.00;6.00
54305;PMS7003;66145;45.188;5.712;2023-12-20T00:25:30;10.00;8.00;6.67
54305;PMS7003;66145;45.188;5.712;2023-12-20T00:27:55;12.00;10.00;7.67
54305;PMS7003;66145;45.188;5.712;2023-12-20T00:30:20;7.67;7.67;6.00
54305;PMS7003;66145;45.188;5.712;2023-12-20T00:32:46;8.00;8.00;6.00
54305;PMS7003;66145;45.188;5.712;2023-12-20T00:35:14;9.67;9.67;8.00
54305;PMS7003;66145;45.188;5.712;2023-12-20T00:37:40;8.00;8.00;6.00
54305;PMS7003;66145;45.188;5.712;2023-12-20T00:40:06;8.00;8.00;6.00
54305;PMS7003;66145;45.188;5.712;2023-12-20T00:42:32;10.00;9.67;7.00
54305;PMS7003;66145;45.188;5.712;2023-12-20T00:44:58;7.67;7.67;6.00
54305;PMS7003;66145;45.188;5.712;2023-12-20T00:47:24;8.50;8.50;7.00
54305;PMS7003;66145;45.188;5.712;2023-12-20T00:49:49;7.67;7.33;5.67
54305;PMS7003;66145;45.188;5.712;2023-12-20T00:52:15;9.67;8.67;6.33
54305;PMS7003;66145;45.188;5.712;2023-12-20T00:54:42;8.50;8.50;7.25
54305;PMS7003;66145;45.188;5.712;2023-12-20T00:57:07;10.67;10.67;7.33
54305;PMS7003;66145;45.188;5.712;2023-12-20T00:59:32;9.00;9.00;6.67
54305;PMS7003;66145;45.188;5.712;2023-12-20T01:01:58;10.33;10.33;7.00
54305;PMS7003;66145;45.188;5.712;2023-12-20T01:04:23;8.00;8.00;6.67
54305;PMS7003;66145;45.188;5.712;2023-12-20T01:06:48;11.33;8.00;5.00
54305;PMS7003;66145;45.188;5.712;2023-12-20T01:09:14;9.00;8.33;6.00
54305;PMS7003;66145;45.188;5.712;2023-12-20T01:11:39;8.67;8.67;6.33
54305;PMS7003;66145;45.188;5.712;2023-12-20T01:14:05;7.33;7.33;6.00
54305;PMS7003;66145;45.188;5.712;2023-12-20T01:16:30;8.33;8.00;6.00
54305;PMS7003;66145;45.188;5.712;2023-12-20T01:18:56;9.00;9.00;7.00
54305;PMS7003;66145;45.188;5.712;2023-12-20T01:21:21;8.67;8.00;6.67
54305;PMS7003;66145;45.188;5.712;2023-12-20T01:23:46;8.00;8.00;6.00
54305;PMS7003;66145;45.188;5.712;2023-12-20T01:26:12;13.67;10.33;6.00
54305;PMS7003;66145;45.188;5.712;2023-12-20T01:28:37;7.67;7.67;6.00
54305;PMS7003;66145;45.188;5.712;2023-12-20T01:31:03;10.00;9.00;7.00
54305;PMS7003;66145;45.188;5.712;2023-12-20T01:33:29;9.33;9.00;7.00
54305;PMS7003;66145;45.188;5.712;2023-12-20T01:35:54;9.00;7.67;6.00
54305;PMS7003;66145;45.188;5.712;2023-12-20T01:38:19;7.67;7.33;6.00
54305;PMS7003;66145;45.188;5.712;2023-12-20T01:40:45;8.00;8.00;6.00
54305;PMS7003;66145;45.188;5.712;2023-12-20T01:43:10;6.67;6.67;6.00
54305;PMS7003;66145;45.188;5.712;2023-12-20T01:45:37;7.75;7.75;5.75
54305;PMS7003;66145;45.188;5.712;2023-12-20T01:48:03;8.67;7.33;6.67
54305;PMS7003;66145;45.188;5.712;2023-12-20T01:50:30;10.00;8.25;6.50
54305;PMS7003;66145;45.188;5.712;2023-12-20T01:52:56;10.75;8.25;6.75
54305;PMS7003;66145;45.188;5.712;2023-12-20T01:55:25;7.50;7.25;6.00
54305;PMS7003;66145;45.188;5.712;2023-12-20T01:57:51;8.25;8.25;6.75
54305;PMS7003;66145;45.188;5.712;2023-12-20T02:00:16;8.00;8.00;6.00
54305;PMS7003;66145;45.188;5.712;2023-12-20T02:02:43;9.75;8.75;7.25
54305;PMS7003;66145;45.188;5.712;2023-12-20T02:05:10;10.00;8.50;6.25
54305;PMS7003;66145;45.188;5.712;2023-12-20T02:07:36;7.50;7.50;5.50
54305;PMS7003;66145;45.188;5.712;2023-12-20T02:10:01;8.33;8.33;6.33
54305;PMS7003;66145;45.188;5.712;2023-12-20T02:12:28;10.25;8.50;6.75
54305;PMS7003;66145;45.188;5.712;2023-12-20T02:14:54;9.00;8.00;6.00
54305;PMS7003;66145;45.188;5.712;2023-12-20T02:17:19;9.33;8.33;5.67
54305;PMS7003;66145;45.188;5.712;2023-12-20T02:19:45;8.00;8.00;6.00
54305;PMS7003;66145;45.188;5.712;2023-12-20T02:22:11;8.67;8.67;6.00
54305;PMS7003;66145;45.188;5.712;2023-12-20T02:24:37;8.67;8.67;7.00
54305;PMS7003;66145;45.188;5.712;2023-12-20T02:27:02;9.00;9.00;6.67
54305;PMS7003;66145;45.188;5.712;2023-12-20T02:29:28;10.50;9.00;6.00
54305;PMS7003;66145;45.188;5.712;2023-12-20T02:31:53;1.00;0.00;0.00
54305;PMS7003;66145;45.188;5.712;2023-12-20T02:34:19;9.67;8.00;7.00
54305;PMS7003;66145;45.188;5.712;2023-12-20T02:36:44;9.33;9.33;7.67
54305;PMS7003;66145;45.188;5.712;2023-12-20T02:39:10;10.33;9.00;7.00
54305;PMS7003;66145;45.188;5.712;2023-12-20T02:41:35;10.33;10.33;8.00
54305;PMS7003;66145;45.188;5.712;2023-12-20T02:44:01;8.33;8.33;6.67
54305;PMS7003;66145;45.188;5.712;2023-12-20T02:46:27;7.75;6.75;5.75
54305;PMS7003;66145;45.188;5.712;2023-12-20T02:48:52;5.00;5.00;4.00
54305;PMS7003;66145;45.188;5.712;2023-12-20T02:51:17;9.00;9.00;6.67
54305;PMS7003;66145;45.188;5.712;2023-12-20T02:53:43;10.00;8.33;7.00
54305;PMS7003;66145;45.188;5.712;2023-12-20T02:56:08;10.00;10.00;7.00
54305;PMS7003;66145;45.188;5.712;2023-12-20T02:58:33;10.67;10.67;7.33
54305;PMS7003;66145;45.188;5.712;2023-12-20T03:00:59;9.33;9.33;6.67
54305;PMS7003;66145;45.188;5.712;2023-12-20T03:03:24;9.00;9.00;6.00
54305;PMS7003;66145;45.188;5.712;2023-12-20T03:05:50;10.33;10.33;8.33
54305;PMS7003;66145;45.188;5.712;2023-12-20T03:08:15;13.00;11.33;9.00
54305;PMS7003;66145;45.188;5.712;2023-12-20T03:10:40;10.00;8.33;6.00
54305;PMS7003;66145;45.188;5.712;2023-12-20T03:13:06;10.00;10.00;7.33
54305;PMS7003;66145;45.188;5.712;2023-12-20T03:15:31;10.67;10.67;7.00
54305;PMS7003;66145;45.188;5.712;2023-12-20T03:17:57;10.33;9.67;8.00
54305;PMS7003;66145;45.188;5.712;2023-12-20T03:20:24;10.25;8.25;6.75
54305;PMS7003;66145;45.188;5.712;2023-12-20T03:22:51;10.00;10.00;8.00
54305;PMS7003;66145;45.188;5.712;2023-12-20T03:25:16;9.00;9.00;7.33
54305;PMS7003;66145;45.188;5.712;2023-12-20T03:27:41;11.00;9.33;7.67
54305;PMS7003;66145;45.188;5.712;2023-12-20T03:30:07;11.33;11.33;8.00
54305;PMS7003;66145;45.188;5.712;2023-12-20T03:32:33;9.00;9.00;7.67
54305;PMS7003;66145;45.188;5.712;2023-12-20T03:34:58;9.00;9.00;8.00
54305;PMS7003;66145;45.188;5.712;2023-12-20T03:37:23;11.33;11.33;9.00
54305;PMS7003;66145;45.188;5.712;2023-12-20T03:39:49;10.67;10.67;8.00
54305;PMS7003;66145;45.188;5.712;2023-12-20T03:42:14;11.00;11.00;8.00
54305;PMS7003;66145;45.188;5.712;2023-12-20T03:44:40;15.33;12.33;7.00
54305;PMS7003;66145;45.188;5.712;2023-12-20T03:47:05;11.00;9.00;7.00
54305;PMS7003;66145;45.188;5.712;2023-12-20T03:49:31;7.00;7.00;5.25
54305;PMS7003;66145;45.188;5.712;2023-12-20T03:51:56;11.00;11.00;7.00
54305;PMS7003;66145;45.188;5.712;2023-12-20T03:54:22;10.67;9.00;7.33
54305;PMS7003;66145;45.188;5.712;2023-12-20T03:56:47;11.00;9.00;7.67
54305;PMS7003;66145;45.188;5.712;2023-12-20T03:59:12;12.00;11.00;9.00
54305;PMS7003;66145;45.188;5.712;2023-12-20T04:01:38;9.00;9.00;7.00
54305;PMS7003;66145;45.188;5.712;2023-12-20T04:04:03;11.00;9.00;7.00
54305;PMS7003;66145;45.188;5.712;2023-12-20T04:06:28;10.00;9.67;8.00
54305;PMS7003;66145;45.188;5.712;2023-12-20T04:08:54;8.00;6.33;5.00
54305;PMS7003;66145;45.188;5.712;2023-12-20T04:11:19;10.00;10.00;7.33
54305;PMS7003;66145;45.188;5.712;2023-12-20T04:13:44;11.67;10.67;8.33
54305;PMS7003;66145;45.188;5.712;2023-12-20T04:16:10;9.00;9.00;7.00
54305;PMS7003;66145;45.188;5.712;2023-12-20T04:18:35;8.00;8.00;5.67
54305;PMS7003;66145;45.188;5.712;2023-12-20T04:21:01;12.67;11.33;9.00
54305;PMS7003;66145;45.188;5.712;2023-12-20T04:23:26;7.00;7.00;6.33
54305;PMS7003;66145;45.188;5.712;2023-12-20T04:25:52;10.00;9.00;8.00
54305;PMS7003;66145;45.188;5.712;2023-12-20T04:28:18;8.67;8.33;7.00
54305;PMS7003;66145;45.188;5.712;2023-12-20T04:30:43;10.00;10.00;8.00
54305;PMS7003;66145;45.188;5.712;2023-12-20T04:33:08;10.00;10.00;7.67
54305;PMS7003;66145;45.188;5.712;2023-12-20T04:35:34;9.00;9.00;7.00
54305;PMS7003;66145;45.188;5.712;2023-12-20T04:37:59;10.67;10.67;8.33
54305;PMS7003;66145;45.188;5.712;2023-12-20T04:40:25;10.67;10.67;8.00
54305;PMS7003;66145;45.188;5.712;2023-12-20T04:42:50;9.33;9.33;7.00
54305;PMS7003;66145;45.188;5.712;2023-12-20T04:45:15;13.00;8.33;7.00
54305;PMS7003;66145;45.188;5.712;2023-12-20T04:47:42;11.33;10.00;7.00
54305;PMS7003;66145;45.188;5.712;2023-12-20T04:50:07;8.67;8.00;7.00
54305;PMS7003;66145;45.188;5.712;2023-12-20T04:52:33;11.67;10.33;7.00
54305;PMS7003;66145;45.188;5.712;2023-12-20T04:54:58;10.00;10.00;6.33
54305;PMS7003;66145;45.188;5.712;2023-12-20T04:57:24;11.00;10.00;7.00
54305;PMS7003;66145;45.188;5.712;2023-12-20T04:59:49;8.00;8.00;7.00
54305;PMS7003;66145;45.188;5.712;2023-12-20T05:02:15;13.00;11.33;8.67
54305;PMS7003;66145;45.188;5.712;2023-12-20T05:04:40;10.67;10.67;9.00
54305;PMS7003;66145;45.188;5.712;2023-12-20T05:07:06;9.00;8.33;6.33
54305;PMS7003;66145;45.188;5.712;2023-12-20T05:09:32;10.67;10.67;7.33
54305;PMS7003;66145;45.188;5.712;2023-12-20T05:11:57;11.67;8.00;6.33
54305;PMS7003;66145;45.188;5.712;2023-12-20T05:14:22;15.67;11.00;7.33
54305;PMS7003;66145;45.188;5.712;2023-12-20T05:16:48;11.00;11.00;8.00
54305;PMS7003;66145;45.188;5.712;2023-12-20T05:19:13;10.00;10.00;8.00
54305;PMS7003;66145;45.188;5.712;2023-12-20T05:21:39;9.00;9.00;8.00
54305;PMS7003;66145;45.188;5.712;2023-12-20T05:24:04;8.00;8.00;5.33
54305;PMS7003;66145;45.188;5.712;2023-12-20T05:26:30;13.67;12.00;9.00
54305;PMS7003;66145;45.188;5.712;2023-12-20T05:28:55;10.33;10.33;8.00
54305;PMS7003;66145;45.188;5.712;2023-12-20T05:31:21;13.00;11.33;8.33
54305;PMS7003;66145;45.188;5.712;2023-12-20T05:33:46;10.33;10.33;8.00
54305;PMS7003;66145;45.188;5.712;2023-12-20T05:36:11;10.00;10.00;8.00
54305;PMS7003;66145;45.188;5.712;2023-12-20T05:38:38;11.00;10.75;8.00
54305;PMS7003;66145;45.188;5.712;2023-12-20T05:41:04;10.33;8.67;5.00
54305;PMS7003;66145;45.188;5.712;2023-12-20T05:43:29;12.33;11.00;8.00
54305;PMS7003;66145;45.188;5.712;2023-12-20T05:45:55;11.00;11.00;7.67
54305;PMS7003;66145;45.188;5.712;2023-12-20T05:48:20;10.00;10.00;8.00
54305;PMS7003;66145;45.188;5.712;2023-12-20T05:50:45;14.67;12.33;8.67
54305;PMS7003;66145;45.188;5.712;2023-12-20T05:53:11;10.00;10.00;8.33
54305;PMS7003;66145;45.188;5.712;2023-12-20T05:55:36;9.67;9.00;7.33
54305;PMS7003;66145;45.188;5.712;2023-12-20T05:58:02;12.33;10.67;9.00
54305;PMS7003;66145;45.188;5.712;2023-12-20T06:00:28;11.33;9.00;7.00
54305;PMS7003;66145;45.188;5.712;2023-12-20T06:02:53;11.33;11.33;9.00
54305;PMS7003;66145;45.188;5.712;2023-12-20T06:05:18;12.00;10.00;9.00
54305;PMS7003;66145;45.188;5.712;2023-12-20T06:07:45;12.00;12.00;9.00
54305;PMS7003;66145;45.188;5.712;2023-12-20T06:10:12;10.75;10.75;8.75
54305;PMS7003;66145;45.188;5.712;2023-12-20T06:12:38;11.00;11.00;8.00
54305;PMS7003;66145;45.188;5.712;2023-12-20T06:15:04;11.00;11.00;8.33
54305;PMS7003;66145;45.188;5.712;2023-12-20T06:17:30;10.75;10.00;7.25
54305;PMS7003;66145;45.188;5.712;2023-12-20T06:19:56;9.67;8.00;6.00
54305;PMS7003;66145;45.188;5.712;2023-12-20T06:22:22;11.67;11.67;9.67
54305;PMS7003;66145;45.188;5.712;2023-12-20T06:24:47;11.67;10.67;8.33
54305;PMS7003;66145;45.188;5.712;2023-12-20T06:27:12;9.00;9.00;7.00
54305;PMS7003;66145;45.188;5.712;2023-12-20T06:29:38;10.67;10.67;7.00
54305;PMS7003;66145;45.188;5.712;2023-12-20T06:32:05;11.00;11.00;8.25
54305;PMS7003;66145;45.188;5.712;2023-12-20T06:34:31;13.33;12.33;9.33
54305;PMS7003;66145;45.188;5.712;2023-12-20T06:36:56;6.67;6.67;5.00
54305;PMS7003;66145;45.188;5.712;2023-12-20T06:39:21;11.67;11.67;10.00
54305;PMS7003;66145;45.188;5.712;2023-12-20T06:41:47;14.33;11.33;9.00
54305;PMS7003;66145;45.188;5.712;2023-12-20T06:44:12;12.00;12.00;8.33
54305;PMS7003;66145;45.188;5.712;2023-12-20T06:46:37;12.00;12.00;9.00
54305;PMS7003;66145;45.188;5.712;2023-12-20T06:49:03;13.00;13.00;10.33
54305;PMS7003;66145;45.188;5.712;2023-12-20T06:51:28;16.00;13.00;11.00
54305;PMS7003;66145;45.188;5.712;2023-12-20T06:53:53;13.00;13.00;8.67
54305;PMS7003;66145;45.188;5.712;2023-12-20T06:56:19;15.00;13.33;9.00
54305;PMS7003;66145;45.188;5.712;2023-12-20T06:58:44;17.33;15.67;11.00
54305;PMS7003;66145;45.188;5.712;2023-12-20T07:01:11;15.67;14.00;10.67
54305;PMS7003;66145;45.188;5.712;2023-12-20T07:03:37;18.00;18.00;12.50
54305;PMS7003;66145;45.188;5.712;2023-12-20T07:06:02;15.67;15.33;11.33
54305;PMS7003;66145;45.188;5.712;2023-12-20T07:08:28;16.25;16.25;12.00
54305;PMS7003;66145;45.188;5.712;2023-12-20T07:10:53;13.33;13.33;10.67
54305;PMS7003;66145;45.188;5.712;2023-12-20T07:13:19;16.67;16.67;11.00
54305;PMS7003;66145;45.188;5.712;2023-12-20T07:15:44;17.67;17.67;12.33
54305;PMS7003;66145;45.188;5.712;2023-12-20T07:18:10;18.33;18.33;13.33
54305;PMS7003;66145;45.188;5.712;2023-12-20T07:20:36;20.67;18.00;12.67
54305;PMS7003;66145;45.188;5.712;2023-12-20T07:23:01;16.33;15.00;11.67
54305;PMS7003;66145;45.188;5.712;2023-12-20T07:25:26;21.67;18.67;13.00
54305;PMS7003;66145;45.188;5.712;2023-12-20T07:27:52;16.67;15.33;11.00
54305;PMS7003;66145;45.188;5.712;2023-12-20T07:30:17;14.67;13.67;12.67
54305;PMS7003;66145;45.188;5.712;2023-12-20T07:32:43;7.00;6.00;0.00
54305;PMS7003;66145;45.188;5.712;2023-12-20T07:35:08;20.67;19.67;13.67
54305;PMS7003;66145;45.188;5.712;2023-12-20T07:37:33;19.00;19.00;13.00
54305;PMS7003;66145;45.188;5.712;2023-12-20T07:39:59;15.33;14.00;11.00
54305;PMS7003;66145;45.188;5.712;2023-12-20T07:42:24;16.00;15.33;11.00
54305;PMS7003;66145;45.188;5.712;2023-12-20T07:44:49;20.00;17.00;12.00
54305;PMS7003;66145;45.188;5.712;2023-12-20T07:47:15;18.00;16.00;13.00
54305;PMS7003;66145;45.188;5.712;2023-12-20T07:49:46;20.25;18.50;13.25
54305;PMS7003;66145;45.188;5.712;2023-12-20T07:52:12;18.50;18.50;12.50
54305;PMS7003;66145;45.188;5.712;2023-12-20T07:54:38;23.33;18.33;13.00
54305;PMS7003;66145;45.188;5.712;2023-12-20T07:57:03;18.00;18.00;13.00
54305;PMS7003;66145;45.188;5.712;2023-12-20T07:59:29;12.67;11.67;6.00
54305;PMS7003;66145;45.188;5.712;2023-12-20T08:01:54;18.00;15.67;11.67
54305;PMS7003;66145;45.188;5.712;2023-12-20T08:04:19;17.33;17.33;14.00
54305;PMS7003;66145;45.188;5.712;2023-12-20T08:06:45;17.67;16.33;12.67
54305;PMS7003;66145;45.188;5.712;2023-12-20T08:09:10;17.33;17.33;14.33
54305;PMS7003;66145;45.188;5.712;2023-12-20T08:11:35;19.33;19.33;13.00
54305;PMS7003;66145;45.188;5.712;2023-12-20T08:14:01;15.67;15.67;13.00
54305;PMS7003;66145;45.188;5.712;2023-12-20T08:16:26;20.00;18.33;12.00
54305;PMS7003;66145;45.188;5.712;2023-12-20T08:18:51;16.00;16.00;12.67
54305;PMS7003;66145;45.188;5.712;2023-12-20T08:21:17;18.00;18.00;13.00
54305;PMS7003;66145;45.188;5.712;2023-12-20T08:23:45;19.75;19.75;13.25
54305;PMS7003;66145;45.188;5.712;2023-12-20T08:26:11;18.33;18.33;11.33
54305;PMS7003;66145;45.188;5.712;2023-12-20T08:28:36;13.67;13.67;11.00
54305;PMS7003;66145;45.188;5.712;2023-12-20T08:31:02;20.00;18.00;13.00
54305;PMS7003;66145;45.188;5.712;2023-12-20T08:33:27;15.00;14.67;11.67
54305;PMS7003;66145;45.188;5.712;2023-12-20T08:35:53;18.67;17.00;13.00
54305;PMS7003;66145;45.188;5.712;2023-12-20T08:38:18;16.33;16.00;12.00
54305;PMS7003;66145;45.188;5.712;2023-12-20T08:40:44;17.00;16.00;12.67
54305;PMS7003;66145;45.188;5.712;2023-12-20T08:43:09;17.67;15.67;9.33
54305;PMS7003;66145;45.188;5.712;2023-12-20T08:45:35;16.67;16.67;12.00
54305;PMS7003;66145;45.188;5.712;2023-12-20T08:48:00;19.33;17.67;12.00
54305;PMS7003;66145;45.188;5.712;2023-12-20T08:50:26;17.33;15.67;11.67
54305;PMS7003;66145;45.188;5.712;2023-12-20T08:52:51;16.00;16.00;12.00
54305;PMS7003;66145;45.188;5.712;2023-12-20T08:55:17;18.33;16.33;10.00
54305;PMS7003;66145;45.188;5.712;2023-12-20T08:57:43;15.75;15.25;11.25
54305;PMS7003;66145;45.188;5.712;2023-12-20T09:00:09;17.33;16.00;11.33
54305;PMS7003;66145;45.188;5.712;2023-12-20T09:02:34;16.50;15.25;10.50
54305;PMS7003;66145;45.188;5.712;2023-12-20T09:05:03;18.50;17.50;11.00
54305;PMS7003;66145;45.188;5.712;2023-12-20T09:07:29;13.00;13.00;10.00
54305;PMS7003;66145;45.188;5.712;2023-12-20T09:09:56;16.75;16.00;12.25
54305;PMS7003;66145;45.188;5.712;2023-12-20T09:12:22;15.33;15.00;11.00
54305;PMS7003;66145;45.188;5.712;2023-12-20T09:14:48;18.00;16.67;11.33
54305;PMS7003;66145;45.188;5.712;2023-12-20T09:17:17;13.75;13.25;9.00
54305;PMS7003;66145;45.188;5.712;2023-12-20T09:19:43;15.25;15.25;11.25
54305;PMS7003;66145;45.188;5.712;2023-12-20T09:22:09;14.00;13.25;10.50
54305;PMS7003;66145;45.188;5.712;2023-12-20T09:24:35;15.33;15.33;11.33
54305;PMS7003;66145;45.188;5.712;2023-12-20T09:27:01;15.00;13.00;10.00
54305;PMS7003;66145;45.188;5.712;2023-12-20T09:29:27;13.00;10.75;7.25
54305;PMS7003;66145;45.188;5.712;2023-12-20T09:31:53;17.67;14.67;11.00
54305;PMS7003;66145;45.188;5.712;2023-12-20T09:34:18;14.33;14.33;10.00
54305;PMS7003;66145;45.188;5.712;2023-12-20T09:36:43;15.67;14.33;11.00
54305;PMS7003;66145;45.188;5.712;2023-12-20T09:39:16;14.50;13.00;10.00
54305;PMS7003;66145;45.188;5.712;2023-12-20T09:41:45;14.25;14.25;11.00
54305;PMS7003;66145;45.188;5.712;2023-12-20T09:44:25;15.75;15.75;11.00
54305;PMS7003;66145;45.188;5.712;2023-12-20T09:46:51;14.33;14.00;11.00
54305;PMS7003;66145;45.188;5.712;2023-12-20T09:49:19;15.75;14.00;10.00
54305;PMS7003;66145;45.188;5.712;2023-12-20T09:51:52;13.75;13.75;10.00
54305;PMS7003;66145;45.188;5.712;2023-12-20T09:54:18;15.75;14.00;10.75
54305;PMS7003;66145;45.188;5.712;2023-12-20T09:56:45;12.50;12.50;9.50
54305;PMS7003;66145;45.188;5.712;2023-12-20T09:59:11;13.67;13.67;10.00
54305;PMS7003;66145;45.188;5.712;2023-12-20T10:01:38;11.00;11.00;9.00
54305;PMS7003;66145;45.188;5.712;2023-12-20T10:04:05;12.50;12.50;9.75
54305;PMS7003;66145;45.188;5.712;2023-12-20T10:06:34;14.00;12.25;8.00
54305;PMS7003;66145;45.188;5.712;2023-12-20T10:09:01;11.75;11.75;8.25
54305;PMS7003;66145;45.188;5.712;2023-12-20T10:11:27;13.00;13.00;9.33
54305;PMS7003;66145;45.188;5.712;2023-12-20T10:13:58;15.25;11.75;8.00
54305;PMS7003;66145;45.188;5.712;2023-12-20T10:16:26;9.25;9.25;6.75
54305;PMS7003;66145;45.188;5.712;2023-12-20T10:18:52;9.33;9.33;7.00
54305;PMS7003;66145;45.188;5.712;2023-12-20T10:21:18;8.50;8.50;6.50
54305;PMS7003;66145;45.188;5.712;2023-12-20T10:23:44;9.67;9.67;7.33
54305;PMS7003;66145;45.188;5.712;2023-12-20T10:26:10;8.75;8.75;7.00
54305;PMS7003;66145;45.188;5.712;2023-12-20T10:28:44;7.25;7.25;6.00
54305;PMS7003;66145;45.188;5.712;2023-12-20T10:31:09;10.00;8.33;5.33
54305;PMS7003;66145;45.188;5.712;2023-12-20T10:33:34;9.00;8.00;6.00
54305;PMS7003;66145;45.188;5.712;2023-12-20T10:36:00;7.00;7.00;5.67
54305;PMS7003;66145;45.188;5.712;2023-12-20T10:38:26;9.67;7.67;6.67
54305;PMS7003;66145;45.188;5.712;2023-12-20T10:40:54;8.33;7.00;5.00
54305;PMS7003;66145;45.188;5.712;2023-12-20T10:43:25;7.00;7.00;4.50
54305;PMS7003;66145;45.188;5.712;2023-12-20T10:45:53;7.50;6.25;5.00
54305;PMS7003;66145;45.188;5.712;2023-12-20T10:48:19;7.00;7.00;5.00
54305;PMS7003;66145;45.188;5.712;2023-12-20T10:50:47;6.50;6.50;4.50
54305;PMS7003;66145;45.188;5.712;2023-12-20T10:53:13;6.00;6.00;4.33
54305;PMS7003;66145;45.188;5.712;2023-12-20T10:55:39;6.50;6.00;5.00
54305;PMS7003;66145;45.188;5.712;2023-12-20T10:58:08;7.00;5.00;4.00
54305;PMS7003;66145;45.188;5.712;2023-12-20T11:00:35;5.75;5.75;4.50
54305;PMS7003;66145;45.188;5.712;2023-12-20T11:03:10;5.25;5.25;4.00
54305;PMS7003;66145;45.188;5.712;2023-12-20T11:05:49;5.00;5.00;4.00
54305;PMS7003;66145;45.188;5.712;2023-12-20T11:08:26;4.00;4.00;3.00
54305;PMS7003;66145;45.188;5.712;2023-12-20T11:11:06;4.50;4.00;3.25
54305;PMS7003;66145;45.188;5.712;2023-12-20T11:13:44;3.75;3.75;2.75
54305;PMS7003;66145;45.188;5.712;2023-12-20T11:16:19;5.00;3.75;3.25
54305;PMS7003;66145;45.188;5.712;2023-12-20T11:18:44;5.67;4.00;3.00
54305;PMS7003;66145;45.188;5.712;2023-12-20T11:21:10;2.00;2.00;2.00
54305;PMS7003;66145;45.188;5.712;2023-12-20T11:23:36;4.00;4.00;3.00
54305;PMS7003;66145;45.188;5.712;2023-12-20T11:26:01;4.67;4.67;3.00
54305;PMS7003;66145;45.188;5.712;2023-12-20T11:28:28;3.50;3.50;3.25
54305;PMS7003;66145;45.188;5.712;2023-12-20T11:30:55;2.75;2.75;2.00
54305;PMS7003;66145;45.188;5.712;2023-12-20T11:33:36;5.00;4.00;2.50
54305;PMS7003;66145;45.188;5.712;2023-12-20T11:36:03;2.25;2.25;1.25
54305;PMS7003;66145;45.188;5.712;2023-12-20T11:38:37;4.00;2.75;2.00
54305;PMS7003;66145;45.188;5.712;2023-12-20T11:41:05;4.33;3.00;2.00
54305;PMS7003;66145;45.188;5.712;2023-12-20T11:43:37;5.00;3.00;3.00
54305;PMS7003;66145;45.188;5.712;2023-12-20T11:48:37;4.50;4.50;3.00
54305;PMS7003;66145;45.188;5.712;2023-12-20T11:51:11;3.00;3.00;2.00
54305;PMS7003;66145;45.188;5.712;2023-12-20T11:53:37;4.00;2.75;2.00
54305;PMS7003;66145;45.188;5.712;2023-12-20T11:56:04;2.00;2.00;2.00
54305;PMS7003;66145;45.188;5.712;2023-12-20T11:58:30;2.25;2.25;1.50
54305;PMS7003;66145;45.188;5.712;2023-12-20T12:00:56;3.00;3.00;2.67
54305;PMS7003;66145;45.188;5.712;2023-12-20T12:03:22;3.67;3.67;2.67
54305;PMS7003;66145;45.188;5.712;2023-12-20T12:05:48;2.00;2.00;1.25
54305;PMS7003;66145;45.188;5.712;2023-12-20T12:08:14;3.00;3.00;2.00
54305;PMS7003;66145;45.188;5.712;2023-12-20T12:10:40;3.00;3.00;2.33
54305;PMS7003;66145;45.188;5.712;2023-12-20T12:13:07;4.00;4.00;3.00
54305;PMS7003;66145;45.188;5.712;2023-12-20T12:15:32;3.67;3.67;3.00
54305;PMS7003;66145;45.188;5.712;2023-12-20T12:17:58;2.33;2.33;1.67
54305;PMS7003;66145;45.188;5.712;2023-12-20T12:20:24;2.25;2.25;2.00
54305;PMS7003;66145;45.188;5.712;2023-12-20T12:22:59;3.00;3.00;2.00
54305;PMS7003;66145;45.188;5.712;2023-12-20T12:25:26;2.00;2.00;1.00
54305;PMS7003;66145;45.188;5.712;2023-12-20T12:27:52;4.00;3.00;2.00
54305;PMS7003;66145;45.188;5.712;2023-12-20T12:30:17;3.00;3.00;2.67
54305;PMS7003;66145;45.188;5.712;2023-12-20T12:32:46;2.50;2.50;2.00
54305;PMS7003;66145;45.188;5.712;2023-12-20T12:35:11;4.00;4.00;3.00
54305;PMS7003;66145;45.188;5.712;2023-12-20T12:37:37;3.00;1.67;1.00
54305;PMS7003;66145;45.188;5.712;2023-12-20T12:40:07;3.00;3.00;2.25
54305;PMS7003;66145;45.188;5.712;2023-12-20T12:42:35;3.00;3.00;3.00
54305;PMS7003;66145;45.188;5.712;2023-12-20T12:45:00;3.00;3.00;2.33
54305;PMS7003;66145;45.188;5.712;2023-12-20T12:47:26;4.00;4.00;3.00
54305;PMS7003;66145;45.188;5.712;2023-12-20T12:49:51;3.67;3.67;2.67
54305;PMS7003;66145;45.188;5.712;2023-12-20T12:52:18;2.50;2.50;1.75
54305;PMS7003;66145;45.188;5.712;2023-12-20T12:54:43;4.00;4.00;3.00
54305;PMS7003;66145;45.188;5.712;2023-12-20T12:57:10;4.75;4.75;4.00
54305;PMS7003;66145;45.188;5.712;2023-12-20T12:59:36;3.00;3.00;2.25
54305;PMS7003;66145;45.188;5.712;2023-12-20T13:02:01;4.00;4.00;3.00
54305;PMS7003;66145;45.188;5.712;2023-12-20T13:04:27;5.00;4.00;3.00
54305;PMS7003;66145;45.188;5.712;2023-12-20T13:06:52;4.00;4.00;3.00
54305;PMS7003;66145;45.188;5.712;2023-12-20T13:09:17;5.00;5.00;4.00
54305;PMS7003;66145;45.188;5.712;2023-12-20T13:11:44;5.25;5.25;3.25
54305;PMS7003;66145;45.188;5.712;2023-12-20T13:14:09;4.67;4.67;3.00
54305;PMS7003;66145;45.188;5.712;2023-12-20T13:16:40;5.00;5.00;3.00
54305;PMS7003;66145;45.188;5.712;2023-12-20T13:19:05;5.00;5.00;3.33
54305;PMS7003;66145;45.188;5.712;2023-12-20T13:21:31;4.00;4.00;3.00
54305;PMS7003;66145;45.188;5.712;2023-12-20T13:23:56;4.00;4.00;3.00
54305;PMS7003;66145;45.188;5.712;2023-12-20T13:26:22;5.67;4.67;3.33
54305;PMS7003;66145;45.188;5.712;2023-12-20T13:28:47;4.33;4.33;3.00
54305;PMS7003;66145;45.188;5.712;2023-12-20T13:31:12;3.00;3.00;2.67
54305;PMS7003;66145;45.188;5.712;2023-12-20T13:33:38;3.67;3.67;3.00
54305;PMS7003;66145;45.188;5.712;2023-12-20T13:36:04;5.75;5.75;3.75
54305;PMS7003;66145;45.188;5.712;2023-12-20T13:38:30;0.00;0.00;0.00
54305;PMS7003;66145;45.188;5.712;2023-12-20T13:40:55;3.33;3.33;3.00
54305;PMS7003;66145;45.188;5.712;2023-12-20T13:43:23;4.25;4.25;3.00
54305;PMS7003;66145;45.188;5.712;2023-12-20T13:45:49;3.50;3.50;3.00
54305;PMS7003;66145;45.188;5.712;2023-12-20T13:48:14;5.67;4.00;3.00
54305;PMS7003;66145;45.188;5.712;2023-12-20T13:50:40;4.67;2.33;2.00
54305;PMS7003;66145;45.188;5.712;2023-12-20T13:53:05;4.00;4.00;3.00
54305;PMS7003;66145;45.188;5.712;2023-12-20T13:55:31;4.67;3.00;3.00
54305;PMS7003;66145;45.188;5.712;2023-12-20T13:57:56;4.00;4.00;3.00
54305;PMS7003;66145;45.188;5.712;2023-12-20T14:00:22;3.00;3.00;2.25
54305;PMS7003;66145;45.188;5.712;2023-12-20T14:02:48;3.00;3.00;2.00
54305;PMS7003;66145;45.188;5.712;2023-12-20T14:05:14;5.75;4.50;2.75